createdAt,value
2023-04-10T00:01:52.347Z,83.71
2023-04-10T00:04:40.127Z,84.00
2023-04-10T00:07:27.813Z,84.08
2023-04-10T00:10:15.242Z,84.06
2023-04-10T00:13:04.039Z,84.09
2023-04-10T00:15:51.524Z,84.11
2023-04-10T00:18:38.704Z,84.36
2023-04-10T00:21:27.272Z,84.44
2023-04-10T00:24:14.995Z,84.46
2023-04-10T00:27:02.786Z,84.37
2023-04-10T00:29:50.357Z,84.66
2023-04-10T00:32:37.987Z,84.75
2023-04-10T00:35:25.385Z,84.73
2023-04-10T00:38:13.185Z,84.75
2023-04-10T00:41:01.816Z,84.86
2023-04-10T00:43:49.555Z,84.93
2023-04-10T00:46:37.655Z,85.19
2023-04-10T00:49:25.530Z,85.26
2023-04-10T00:52:13.272Z,85.32
2023-04-10T00:55:01.667Z,85.25
2023-04-10T00:57:48.993Z,85.60
2023-04-10T01:00:36.250Z,85.80
2023-04-10T01:03:43.478Z,85.63
2023-04-10T01:06:46.785Z,85.72
2023-04-10T01:10:15.071Z,85.82
2023-04-10T01:13:16.275Z,86.02
2023-04-10T01:16:30.651Z,86.08
2023-04-10T01:19:53.731Z,86.18
2023-04-10T01:22:40.883Z,86.51
2023-04-10T01:25:31.254Z,86.56
2023-04-10T01:28:18.522Z,86.72
2023-04-10T01:31:10.629Z,86.89
2023-04-10T01:34:03.696Z,87.01
2023-04-10T01:40:03.835Z,87.09
2023-04-10T01:42:54.699Z,87.29
2023-04-10T01:45:48.713Z,87.49
2023-04-10T01:48:36.565Z,87.67
2023-04-10T01:51:24.520Z,87.88
2023-04-10T01:54:12.620Z,88.06
2023-04-10T01:57:01.706Z,88.09
2023-04-10T01:59:50.549Z,87.90
2023-04-10T02:02:38.054Z,88.01
2023-04-10T02:05:33.637Z,88.13
2023-04-10T02:08:35.944Z,87.86
2023-04-10T02:11:33.179Z,87.92
2023-04-10T02:14:21.836Z,88.04
2023-04-10T02:17:13.439Z,88.13
2023-04-10T02:20:02.236Z,88.16
2023-04-10T02:22:50.068Z,88.14
2023-04-10T02:25:37.325Z,88.13
2023-04-10T02:28:25.470Z,88.38
2023-04-10T02:31:12.789Z,88.44
2023-04-10T02:34:00.493Z,88.52
2023-04-10T02:36:47.922Z,88.53
2023-04-10T02:39:36.463Z,88.54
2023-04-10T02:42:23.882Z,88.92
2023-04-10T02:45:11.709Z,88.79
2023-04-10T02:48:02.360Z,88.80
2023-04-10T02:50:55.949Z,88.97
2023-04-10T02:53:43.675Z,89.06
2023-04-10T02:56:34.179Z,89.01
2023-04-10T02:59:22.819Z,89.33
2023-04-10T03:02:10.995Z,89.16
2023-04-10T03:05:01.429Z,89.26
2023-04-10T03:07:48.924Z,89.23
2023-04-10T03:10:36.728Z,89.28
2023-04-10T03:13:24.069Z,89.47
2023-04-10T03:16:11.333Z,89.54
2023-04-10T03:18:59.218Z,89.78
2023-04-10T03:21:46.802Z,89.73
2023-04-10T03:24:34.115Z,89.84
2023-04-10T03:27:22.308Z,89.85
2023-04-10T03:30:10.294Z,90.04
2023-04-10T03:33:00.824Z,90.35
2023-04-10T03:35:48.186Z,90.34
2023-04-10T03:38:35.755Z,89.99
2023-04-10T03:41:25.409Z,90.46
2023-04-10T03:44:13.036Z,90.31
2023-04-10T03:47:00.660Z,90.12
2023-04-10T03:49:48.676Z,89.90
2023-04-10T03:52:36.386Z,89.91
2023-04-10T03:55:25.761Z,89.80
2023-04-10T03:58:13.124Z,89.67
2023-04-10T04:01:00.355Z,89.79
2023-04-10T04:03:55.365Z,89.71
2023-04-10T04:07:00.985Z,90.05
2023-04-10T04:10:26.669Z,89.90
2023-04-10T04:13:23.788Z,90.21
2023-04-10T04:16:16.410Z,90.41
2023-04-10T04:19:12.017Z,90.32
2023-04-10T04:22:05.410Z,90.39
2023-04-10T04:25:11.206Z,90.76
2023-04-10T04:28:29.572Z,90.50
2023-04-10T04:31:31.957Z,90.44
2023-04-10T04:34:43.565Z,90.64
2023-04-10T04:37:57.861Z,91.03
2023-04-10T04:41:05.743Z,90.67
2023-04-10T04:44:21.621Z,90.34
2023-04-10T04:47:19.200Z,90.55
2023-04-10T04:50:35.972Z,91.10
2023-04-10T04:53:36.610Z,91.20
2023-04-10T04:56:42.360Z,90.30
2023-04-10T04:59:44.508Z,90.37
2023-04-10T05:03:00.930Z,90.54
2023-04-10T05:06:07.286Z,90.46
2023-04-10T05:09:08.159Z,90.06
2023-04-10T05:12:22.941Z,90.82
2023-04-10T05:15:29.012Z,91.13
2023-04-10T05:18:32.420Z,91.14
2023-04-10T05:21:32.526Z,91.03
2023-04-10T05:24:42.327Z,91.06
2023-04-10T05:27:35.771Z,91.48
2023-04-10T05:30:24.091Z,91.71
2023-04-10T05:33:29.291Z,91.42
2023-04-10T05:36:31.552Z,91.03
2023-04-10T05:39:24.820Z,91.19
2023-04-10T05:42:12.839Z,90.94
2023-04-10T05:45:10.584Z,90.99
2023-04-10T05:48:16.593Z,90.91
2023-04-10T05:51:24.181Z,91.04
2023-04-10T05:54:30.431Z,91.06
2023-04-10T05:57:47.818Z,90.94
2023-04-10T06:00:55.522Z,90.88
2023-04-10T06:04:01.867Z,90.60
2023-04-10T06:06:50.218Z,90.53
2023-04-10T06:09:40.428Z,90.92
2023-04-10T06:12:29.986Z,90.97
2023-04-10T06:15:18.005Z,91.03
2023-04-10T06:18:05.498Z,91.32
2023-04-10T06:20:52.716Z,90.85
2023-04-10T06:23:40.215Z,90.83
2023-04-10T06:26:27.692Z,90.94
2023-04-10T06:29:15.957Z,90.71
2023-04-10T06:32:04.325Z,90.81
2023-04-10T06:34:55.254Z,91.02
2023-04-10T06:37:43.314Z,91.13
2023-04-10T06:40:33.332Z,91.05
2023-04-10T06:43:20.826Z,91.27
2023-04-10T06:46:09.225Z,91.06
2023-04-10T06:48:56.847Z,90.96
2023-04-10T06:51:45.515Z,91.14
2023-04-10T06:54:32.819Z,91.04
2023-04-10T06:57:20.537Z,91.35
2023-04-10T07:00:08.900Z,90.99
2023-04-10T07:02:56.256Z,90.67
2023-04-10T07:05:43.722Z,90.38
2023-04-10T07:08:31.232Z,89.97
2023-04-10T07:11:18.617Z,90.27
2023-04-10T07:14:06.027Z,90.23
2023-04-10T07:16:53.628Z,90.38
2023-04-10T07:19:40.973Z,90.54
2023-04-10T07:22:28.277Z,90.41
2023-04-10T07:25:16.057Z,90.55
2023-04-10T07:28:03.537Z,90.41
2023-04-10T07:30:51.096Z,90.23
2023-04-10T07:33:38.941Z,90.72
2023-04-10T07:36:26.431Z,90.48
2023-04-10T07:39:14.258Z,90.51
2023-04-10T07:42:01.542Z,90.14
2023-04-10T07:44:48.779Z,89.42
2023-04-10T07:47:36.121Z,89.46
2023-04-10T07:50:23.475Z,89.55
2023-04-10T07:53:10.821Z,89.29
2023-04-10T07:55:58.373Z,88.98
2023-04-10T07:58:46.202Z,89.52
2023-04-10T08:01:33.913Z,89.86
2023-04-10T08:04:21.595Z,89.40
2023-04-10T08:07:09.288Z,88.48
2023-04-10T08:09:56.691Z,88.34
2023-04-10T08:12:43.956Z,87.73
2023-04-10T08:15:31.352Z,87.78
2023-04-10T08:18:18.490Z,88.23
2023-04-10T08:21:06.213Z,88.41
2023-04-10T08:23:55.057Z,88.12
2023-04-10T08:26:42.286Z,88.29
2023-04-10T08:29:29.614Z,87.39
2023-04-10T08:32:17.146Z,86.65
2023-04-10T08:35:05.102Z,85.93
2023-04-10T08:38:07.724Z,86.16
2023-04-10T08:41:00.341Z,87.65
2023-04-10T08:43:49.144Z,87.42
2023-04-10T08:46:41.519Z,86.72
2023-04-10T08:49:44.208Z,86.52
2023-04-10T08:52:35.421Z,85.74
2023-04-10T08:55:23.385Z,85.50
2023-04-10T08:58:13.117Z,85.45
2023-04-10T09:01:01.283Z,85.72
2023-04-10T09:03:48.795Z,85.19
2023-04-10T09:06:36.219Z,84.27
2023-04-10T09:09:23.346Z,84.96
2023-04-10T09:12:13.375Z,84.77
2023-04-10T09:15:00.766Z,84.34
2023-04-10T09:17:55.008Z,83.15
2023-04-10T09:20:42.422Z,83.29
2023-04-10T09:23:29.676Z,82.94
2023-04-10T09:26:26.110Z,82.54
2023-04-10T09:29:16.227Z,82.10
2023-04-10T09:32:03.766Z,81.00
2023-04-10T09:34:53.395Z,80.25
2023-04-10T09:37:41.887Z,80.10
2023-04-10T09:40:29.294Z,80.17
2023-04-10T09:43:25.216Z,80.04
2023-04-10T09:46:26.065Z,79.25
2023-04-10T09:49:13.368Z,78.94
2023-04-10T09:52:17.842Z,78.06
2023-04-10T09:55:09.131Z,78.59
2023-04-10T09:57:58.056Z,78.38
2023-04-10T10:00:47.827Z,76.97
2023-04-10T10:03:35.480Z,76.93
2023-04-10T10:06:22.994Z,76.61
2023-04-10T10:09:12.183Z,76.79
2023-04-10T10:12:00.634Z,75.67
2023-04-10T10:15:00.169Z,75.56
2023-04-10T10:18:00.075Z,75.51
2023-04-10T10:20:49.719Z,74.77
2023-04-10T10:23:38.182Z,75.87
2023-04-10T10:26:25.635Z,74.03
2023-04-10T10:29:15.171Z,74.20
2023-04-10T10:32:03.897Z,75.01
2023-04-10T10:34:52.519Z,75.28
2023-04-10T10:37:40.643Z,74.46
2023-04-10T10:40:46.853Z,73.70
2023-04-10T10:43:52.308Z,74.16
2023-04-10T10:47:21.358Z,73.41
2023-04-10T10:50:09.113Z,73.08
2023-04-10T10:52:57.092Z,73.03
2023-04-10T10:55:44.795Z,71.12
2023-04-10T10:58:52.490Z,70.69
2023-04-10T11:02:16.279Z,71.42
2023-04-10T11:05:03.800Z,72.09
2023-04-10T11:08:00.882Z,71.50
2023-04-10T11:11:04.974Z,71.13
2023-04-10T11:13:52.295Z,70.12
2023-04-10T11:16:41.126Z,71.73
2023-04-10T11:19:28.667Z,71.63
2023-04-10T11:22:16.130Z,70.33
2023-04-10T11:25:09.644Z,70.32
2023-04-10T11:27:56.958Z,70.54
2023-04-10T11:30:44.274Z,70.56
2023-04-10T11:33:31.716Z,69.78
2023-04-10T11:36:19.792Z,69.13
2023-04-10T11:39:09.082Z,70.06
2023-04-10T11:41:57.132Z,68.96
2023-04-10T11:44:44.802Z,68.57
2023-04-10T11:47:32.785Z,68.74
2023-04-10T11:50:20.874Z,67.04
2023-04-10T11:53:21.348Z,67.61
2023-04-10T11:56:21.470Z,68.16
2023-04-10T11:59:10.289Z,69.31
2023-04-10T12:02:14.153Z,68.62
2023-04-10T12:05:02.535Z,69.25
2023-04-10T12:07:50.081Z,68.19
2023-04-10T12:10:46.945Z,67.33
2023-04-10T12:16:39.544Z,68.01
2023-04-10T12:19:27.271Z,68.02
2023-04-10T12:22:15.340Z,67.66
2023-04-10T12:25:02.768Z,68.03
2023-04-10T12:27:51.075Z,68.11
2023-04-10T12:30:46.330Z,68.13
2023-04-10T12:33:33.809Z,67.97
2023-04-10T12:36:21.971Z,68.00
2023-04-10T12:39:22.761Z,66.75
2023-04-10T12:42:14.665Z,66.86
2023-04-10T12:45:03.023Z,65.54
2023-04-10T12:47:53.661Z,64.85
2023-04-10T12:50:49.178Z,63.87
2023-04-10T12:53:44.282Z,63.02
2023-04-10T12:56:47.066Z,64.45
2023-04-10T12:59:34.562Z,64.04
2023-04-10T13:02:23.100Z,64.13
2023-04-10T13:05:10.794Z,63.80
2023-04-10T13:07:58.662Z,63.28
2023-04-10T13:10:46.082Z,63.81
2023-04-10T13:13:33.623Z,62.71
2023-04-10T13:16:20.790Z,61.72
2023-04-10T13:19:08.625Z,60.78
2023-04-10T13:21:55.764Z,61.07
2023-04-10T13:24:43.966Z,60.65
2023-04-10T13:27:31.072Z,61.12
2023-04-10T13:30:18.647Z,59.69
2023-04-10T13:33:05.983Z,59.28
2023-04-10T13:35:53.705Z,61.34
2023-04-10T13:38:42.681Z,60.31
2023-04-10T13:41:30.711Z,59.27
2023-04-10T13:44:17.964Z,58.44
2023-04-10T13:47:05.657Z,58.99
2023-04-10T13:49:52.874Z,58.37
2023-04-10T13:52:40.436Z,58.33
2023-04-10T13:55:27.584Z,58.49
2023-04-10T13:58:15.555Z,58.76
2023-04-10T14:01:02.797Z,57.59
2023-04-10T14:03:50.587Z,58.33
2023-04-10T14:06:38.059Z,57.67
2023-04-10T14:09:27.455Z,58.01
2023-04-10T14:12:18.716Z,57.94
2023-04-10T14:15:06.822Z,58.90
2023-04-10T14:17:53.992Z,59.02
2023-04-10T14:20:41.669Z,57.83
2023-04-10T14:23:28.800Z,58.87
2023-04-10T14:26:16.165Z,58.79
2023-04-10T14:29:03.426Z,59.64
2023-04-10T14:31:57.619Z,59.59
2023-04-10T14:34:45.443Z,59.66
2023-04-10T14:37:32.808Z,60.22
2023-04-10T14:40:20.192Z,60.30
2023-04-10T14:43:07.847Z,60.59
2023-04-10T14:45:54.978Z,60.71
2023-04-10T14:48:42.447Z,60.99
2023-04-10T14:51:29.629Z,61.18
2023-04-10T14:54:21.281Z,61.37
2023-04-10T14:57:09.145Z,61.37
2023-04-10T14:59:56.795Z,61.79
2023-04-10T15:02:44.812Z,62.08
2023-04-10T15:05:32.528Z,62.52
2023-04-10T15:08:19.678Z,63.01
2023-04-10T15:11:07.356Z,63.05
2023-04-10T15:13:54.796Z,63.16
2023-04-10T15:16:42.597Z,63.30
2023-04-10T15:19:29.875Z,63.80
2023-04-10T15:22:17.388Z,63.80
2023-04-10T15:25:04.930Z,63.66
2023-04-10T15:27:55.134Z,63.90
2023-04-10T15:30:45.374Z,63.86
2023-04-10T15:33:35.280Z,63.89
2023-04-10T15:36:22.374Z,63.81
2023-04-10T15:39:10.570Z,64.06
2023-04-10T15:41:59.542Z,64.17
2023-04-10T15:44:48.914Z,64.22
2023-04-10T15:47:36.592Z,64.16
2023-04-10T15:50:24.713Z,63.56
2023-04-10T15:53:11.791Z,63.16
2023-04-10T15:55:59.329Z,63.16
2023-04-10T15:58:46.437Z,63.63
2023-04-10T16:01:34.139Z,63.72
2023-04-10T16:04:21.412Z,63.78
2023-04-10T16:07:09.231Z,63.92
2023-04-10T16:09:57.651Z,63.75
2023-04-10T16:12:45.307Z,64.11
2023-04-10T16:15:37.148Z,64.34
2023-04-10T16:18:25.047Z,64.08
2023-04-10T16:21:15.778Z,63.75
2023-04-10T16:24:03.857Z,63.87
2023-04-10T16:26:53.406Z,64.05
2023-04-10T16:29:41.421Z,64.32
2023-04-10T16:32:36.050Z,64.35
2023-04-10T16:35:23.920Z,64.08
2023-04-10T16:38:11.087Z,64.27
2023-04-10T16:41:01.529Z,64.41
2023-04-10T16:43:48.701Z,64.60
2023-04-10T16:46:36.378Z,65.04
2023-04-10T16:49:23.977Z,65.49
2023-04-10T16:52:12.256Z,65.71
2023-04-10T16:54:59.478Z,66.24
2023-04-10T16:57:46.980Z,66.74
2023-04-10T17:00:34.158Z,67.07
2023-04-10T17:03:21.850Z,67.35
2023-04-10T17:06:09.110Z,67.66
2023-04-10T17:08:56.997Z,67.86
2023-04-10T17:11:44.644Z,67.96
2023-04-10T17:14:32.028Z,68.07
2023-04-10T17:17:19.196Z,68.59
2023-04-10T17:20:09.142Z,69.03
2023-04-10T17:22:56.264Z,68.89
2023-04-10T17:25:44.932Z,69.13
2023-04-10T17:28:33.734Z,69.22
2023-04-10T17:31:21.418Z,69.17
2023-04-10T17:34:08.582Z,69.41
2023-04-10T17:36:56.220Z,69.58
2023-04-10T17:39:43.467Z,69.84
2023-04-10T17:42:31.058Z,69.80
2023-04-10T17:45:18.327Z,69.99
2023-04-10T17:48:06.787Z,70.38
2023-04-10T17:50:54.218Z,70.49
2023-04-10T17:53:41.942Z,70.74
2023-04-10T17:56:29.206Z,70.92
2023-04-10T17:59:16.931Z,71.04
2023-04-10T18:02:04.307Z,71.07
2023-04-10T18:04:51.941Z,71.37
2023-04-10T18:07:39.353Z,71.43
2023-04-10T18:10:27.019Z,71.51
2023-04-10T18:13:14.313Z,71.94
2023-04-10T18:16:01.897Z,72.01
2023-04-10T18:18:49.192Z,72.22
2023-04-10T18:21:36.695Z,72.23
2023-04-10T18:24:23.908Z,72.37
2023-04-10T18:27:12.164Z,72.48
2023-04-10T18:29:59.647Z,72.69
2023-04-10T18:32:51.513Z,72.60
2023-04-10T18:35:38.938Z,72.89
2023-04-10T18:38:27.068Z,73.04
2023-04-10T18:41:14.329Z,73.46
2023-04-10T18:44:05.297Z,73.61
2023-04-10T18:47:01.228Z,73.58
2023-04-10T18:49:51.468Z,73.54
2023-04-10T18:52:38.701Z,73.74
2023-04-10T18:55:26.131Z,73.70
2023-04-10T18:58:13.350Z,73.51
2023-04-10T19:01:01.288Z,73.55
2023-04-10T19:03:50.765Z,73.52
2023-04-10T19:06:42.143Z,73.56
2023-04-10T19:09:29.616Z,73.81
2023-04-10T19:12:17.104Z,73.76
2023-04-10T19:15:07.363Z,73.78
2023-04-10T19:17:55.115Z,74.02
2023-04-10T19:20:51.004Z,74.26
2023-04-10T19:23:40.668Z,74.29
2023-04-10T19:26:27.912Z,74.42
2023-04-10T19:29:15.613Z,74.63
2023-04-10T19:32:03.656Z,74.69
2023-04-10T19:34:52.774Z,75.12
2023-04-10T19:37:40.056Z,75.12
2023-04-10T19:40:30.042Z,75.14
2023-04-10T19:43:17.679Z,75.09
2023-04-10T19:46:05.962Z,75.37
2023-04-10T19:48:54.026Z,75.21
2023-04-10T19:51:41.708Z,75.24
2023-04-10T19:54:29.286Z,75.17
2023-04-10T19:57:16.803Z,75.29
2023-04-10T20:00:06.262Z,75.66
2023-04-10T20:02:59.888Z,76.05
2023-04-10T20:05:47.636Z,76.27
2023-04-10T20:08:36.070Z,76.33
2023-04-10T20:11:29.751Z,76.22
2023-04-10T20:14:17.235Z,76.76
2023-04-10T20:17:04.667Z,77.02
2023-04-10T20:19:52.252Z,77.17
2023-04-10T20:22:39.509Z,77.22
2023-04-10T20:25:27.072Z,77.21
2023-04-10T20:28:15.756Z,77.28
2023-04-10T20:31:03.788Z,77.37
2023-04-10T20:33:53.112Z,77.40
2023-04-10T20:36:40.859Z,77.34
2023-04-10T20:39:28.135Z,77.34
2023-04-10T20:42:16.674Z,77.61
2023-04-10T20:45:04.220Z,78.03
2023-04-10T20:47:51.954Z,78.08
2023-04-10T20:50:45.337Z,78.21
2023-04-10T20:53:36.304Z,78.27
2023-04-10T20:56:29.814Z,78.03
2023-04-10T20:59:24.041Z,78.27
2023-04-10T21:02:12.602Z,78.14
2023-04-10T21:05:00.553Z,78.03
2023-04-10T21:07:47.777Z,78.21
2023-04-10T21:10:38.655Z,78.45
2023-04-10T21:13:25.972Z,78.28
2023-04-10T21:16:13.924Z,78.27
2023-04-10T21:19:01.226Z,77.94
2023-04-10T21:21:48.800Z,77.97
2023-04-10T21:24:36.353Z,78.23
2023-04-10T21:27:23.933Z,78.55
2023-04-10T21:30:11.266Z,78.63
2023-04-10T21:32:58.972Z,78.61
2023-04-10T21:35:46.225Z,78.42
2023-04-10T21:38:34.873Z,78.19
2023-04-10T21:41:22.086Z,78.00
2023-04-10T21:44:09.657Z,78.13
2023-04-10T21:46:56.794Z,78.10
2023-04-10T21:49:44.372Z,78.07
2023-04-10T21:52:31.514Z,78.21
2023-04-10T21:55:19.433Z,78.22
2023-04-10T21:58:06.751Z,78.34
2023-04-10T22:00:54.538Z,78.46
2023-04-10T22:03:41.885Z,78.53
2023-04-10T22:06:29.374Z,78.44
2023-04-10T22:09:17.176Z,78.41
2023-04-10T22:12:04.837Z,78.03
2023-04-10T22:14:52.014Z,77.97
2023-04-10T22:17:39.773Z,77.97
2023-04-10T22:20:26.960Z,78.18
2023-04-10T22:23:14.536Z,78.28
2023-04-10T22:26:01.749Z,78.37
2023-04-10T22:28:49.176Z,78.61
2023-04-10T22:31:36.432Z,78.57
2023-04-10T22:34:24.028Z,78.63
2023-04-10T22:37:11.263Z,78.23
2023-04-10T22:40:00.239Z,78.32
2023-04-10T22:42:48.022Z,78.34
2023-04-10T22:45:35.437Z,78.20
2023-04-10T22:48:22.776Z,78.50
2023-04-10T22:51:11.312Z,78.83
2023-04-10T22:53:58.465Z,78.96
2023-04-10T22:56:48.339Z,78.97
2023-04-10T22:59:36.514Z,79.08
2023-04-10T23:02:24.390Z,79.14
2023-04-10T23:05:11.640Z,79.22
2023-04-10T23:07:59.435Z,79.65
2023-04-10T23:10:46.666Z,79.75
2023-04-10T23:13:34.156Z,79.90
2023-04-10T23:16:21.374Z,79.57
2023-04-10T23:19:08.991Z,79.32
2023-04-10T23:21:56.574Z,79.24
2023-04-10T23:24:45.360Z,79.32
2023-04-10T23:27:32.918Z,79.34
2023-04-10T23:30:20.659Z,79.47
2023-04-10T23:33:07.866Z,79.42
2023-04-10T23:35:55.530Z,79.41
2023-04-10T23:38:42.664Z,79.38
2023-04-10T23:41:30.180Z,79.50
2023-04-10T23:44:17.354Z,79.60
2023-04-10T23:47:05.972Z,79.69
2023-04-10T23:49:54.196Z,79.97
2023-04-10T23:52:41.878Z,80.17
2023-04-10T23:55:29.135Z,80.07
2023-04-10T23:58:16.919Z,79.96
